createdAt,value
2023-02-04T00:00:57.172Z,98886.34
2023-02-04T00:03:46.973Z,98891.69
2023-02-04T00:06:36.324Z,98897.25
2023-02-04T00:09:19.082Z,98892.13
2023-02-04T00:12:07.256Z,98887.19
2023-02-04T00:14:50.028Z,98888.63
2023-02-04T00:17:38.732Z,98894.56
2023-02-04T00:20:22.064Z,98894.56
2023-02-04T00:23:10.293Z,98900.31
2023-02-04T00:25:53.020Z,98903.19
2023-02-04T00:28:35.314Z,98911.56
2023-02-04T00:31:23.991Z,98909.94
2023-02-04T00:34:12.985Z,98905.25
2023-02-04T00:36:55.222Z,98910.13
2023-02-04T00:39:45.355Z,98908.09
2023-02-04T00:42:27.234Z,98901.13
2023-02-04T00:45:18.051Z,98904.19
2023-02-04T00:48:00.188Z,98899.09
2023-02-04T00:50:48.923Z,98899.91
2023-02-04T00:53:31.266Z,98898.50
2023-02-04T00:56:19.968Z,98907.28
2023-02-04T00:59:02.350Z,98906.03
2023-02-04T01:01:50.952Z,98896.66
2023-02-04T01:04:33.233Z,98906.47
2023-02-04T01:07:22.067Z,98893.38
2023-02-04T01:10:04.339Z,98897.44
2023-02-04T01:12:52.970Z,98905.38
2023-02-04T01:15:41.955Z,98901.72
2023-02-04T01:18:24.468Z,98905.66
2023-02-04T01:21:14.077Z,98907.84
2023-02-04T01:24:02.195Z,98906.00
2023-02-04T01:27:03.922Z,98913.13
2023-02-04T01:29:53.013Z,98913.97
2023-02-04T01:32:48.783Z,98918.00
2023-02-04T01:35:37.910Z,98923.97
2023-02-04T01:38:20.371Z,98932.13
2023-02-04T01:41:08.897Z,98935.16
2023-02-04T01:43:51.349Z,98938.41
2023-02-04T01:46:41.968Z,98938.03
2023-02-04T01:49:26.225Z,98933.09
2023-02-04T01:52:14.908Z,98953.28
2023-02-04T01:55:05.030Z,98947.78
2023-02-04T01:57:56.930Z,98957.53
2023-02-04T02:00:40.928Z,98954.47
2023-02-04T02:03:29.243Z,98962.78
2023-02-04T02:06:11.971Z,98967.91
2023-02-04T02:09:02.027Z,98968.13
2023-02-04T02:11:45.251Z,98975.13
2023-02-04T02:14:33.916Z,98980.63
2023-02-04T02:17:16.232Z,98980.84
2023-02-04T02:20:05.927Z,98982.44
2023-02-04T02:22:54.987Z,98981.41
2023-02-04T02:25:43.949Z,98985.81
2023-02-04T02:28:29.214Z,98983.72
2023-02-04T02:31:18.112Z,98982.16
2023-02-04T02:34:12.970Z,98990.72
2023-02-04T02:37:02.011Z,98994.78
2023-02-04T02:39:55.908Z,98999.94
2023-02-04T02:42:45.408Z,98998.78
2023-02-04T02:45:34.954Z,98999.16
2023-02-04T02:48:18.984Z,99012.28
2023-02-04T02:51:07.939Z,99006.75
2023-02-04T02:53:52.443Z,99010.03
2023-02-04T02:56:41.963Z,99017.59
2023-02-04T02:59:24.655Z,99016.94
2023-02-04T03:02:16.974Z,99021.25
2023-02-04T03:05:02.087Z,99029.19
2023-02-04T03:07:52.054Z,99031.63
2023-02-04T03:10:41.255Z,99029.34
2023-02-04T03:13:24.934Z,99033.34
2023-02-04T03:16:16.070Z,99043.69
2023-02-04T03:18:58.273Z,99044.00
2023-02-04T03:21:46.942Z,99048.34
2023-02-04T03:24:31.228Z,99045.44
2023-02-04T03:27:19.951Z,99037.97
2023-02-04T03:30:08.866Z,99054.72
2023-02-04T03:33:04.969Z,99043.88
2023-02-04T03:35:53.386Z,99052.16
2023-02-04T03:38:35.991Z,99053.69
2023-02-04T03:41:24.196Z,99057.75
2023-02-04T03:44:06.942Z,99053.56
2023-02-04T03:46:56.543Z,99059.00
2023-02-04T03:49:39.944Z,99066.63
2023-02-04T03:52:22.155Z,99067.59
2023-02-04T03:55:11.083Z,99070.81
2023-02-04T03:58:00.220Z,99069.81
2023-02-04T04:00:42.263Z,99071.25
2023-02-04T04:03:30.368Z,99075.63
2023-02-04T04:06:13.974Z,99078.28
2023-02-04T04:09:02.672Z,99081.41
2023-02-04T04:11:44.940Z,99074.78
2023-02-04T04:14:33.995Z,99076.50
2023-02-04T04:17:22.953Z,99082.25
2023-02-04T04:20:12.147Z,99078.38
2023-02-04T04:22:54.951Z,99085.59
2023-02-04T04:25:43.923Z,99089.75
2023-02-04T04:28:26.350Z,99087.53
2023-02-04T04:31:15.130Z,99089.16
2023-02-04T04:34:09.928Z,99095.97
2023-02-04T04:36:58.931Z,99105.97
2023-02-04T04:39:41.215Z,99110.31
2023-02-04T04:42:29.890Z,99113.31
2023-02-04T04:45:15.588Z,99119.03
2023-02-04T04:48:04.994Z,99118.22
2023-02-04T04:50:48.136Z,99123.38
2023-02-04T04:53:36.885Z,99123.38
2023-02-04T04:56:20.232Z,99120.63
2023-02-04T04:59:08.909Z,99131.78
2023-02-04T05:01:51.194Z,99129.59
2023-02-04T05:04:40.019Z,99138.25
2023-02-04T05:07:28.942Z,99135.53
2023-02-04T05:10:18.213Z,99137.44
2023-02-04T05:13:00.164Z,99140.16
2023-02-04T05:15:48.958Z,99148.81
2023-02-04T05:18:38.943Z,99143.94
2023-02-04T05:21:21.111Z,99140.66
2023-02-04T05:24:09.914Z,99143.66
2023-02-04T05:26:58.189Z,99150.38
2023-02-04T05:29:40.994Z,99151.50
2023-02-04T05:32:35.856Z,99146.25
2023-02-04T05:35:24.970Z,99146.72
2023-02-04T05:38:07.184Z,99135.19
2023-02-04T05:40:55.979Z,99139.16
2023-02-04T05:43:38.198Z,99142.97
2023-02-04T05:46:26.972Z,99147.00
2023-02-04T05:49:09.514Z,99150.41
2023-02-04T05:51:57.931Z,99147.91
2023-02-04T05:54:40.360Z,99128.13
2023-02-04T05:57:28.910Z,99130.00
2023-02-04T06:00:12.215Z,99127.56
2023-02-04T06:03:02.039Z,99123.69
2023-02-04T06:05:45.350Z,99120.69
2023-02-04T06:08:33.982Z,99111.69
2023-02-04T06:11:18.540Z,99117.09
2023-02-04T06:14:07.326Z,99105.94
2023-02-04T06:16:49.211Z,99097.72
2023-02-04T06:19:38.973Z,99100.09
2023-02-04T06:22:21.371Z,99106.41
2023-02-04T06:25:09.864Z,99094.38
2023-02-04T06:27:52.342Z,99091.06
2023-02-04T06:30:41.067Z,99088.28
2023-02-04T06:33:36.828Z,99080.25
2023-02-04T06:36:25.976Z,99077.81
2023-02-04T06:39:08.418Z,99072.16
2023-02-04T06:41:56.969Z,99066.78
2023-02-04T06:44:39.421Z,99075.13
2023-02-04T06:47:27.968Z,99061.03
2023-02-04T06:50:10.428Z,99057.94
2023-02-04T06:52:58.924Z,99054.09
2023-02-04T06:55:41.401Z,99057.75
2023-02-04T06:58:30.034Z,99050.41
2023-02-04T07:01:12.221Z,99047.59
2023-02-04T07:04:01.995Z,99050.88
2023-02-04T07:06:44.365Z,99038.84
2023-02-04T07:09:32.954Z,99045.56
2023-02-04T07:12:21.962Z,99047.16
2023-02-04T07:15:11.314Z,99042.00
2023-02-04T07:17:53.873Z,99030.19
2023-02-04T07:20:49.912Z,99027.97
2023-02-04T07:23:38.909Z,99017.91
2023-02-04T07:26:21.283Z,99021.13
2023-02-04T07:29:17.324Z,99015.94
2023-02-04T07:32:03.300Z,99005.66
2023-02-04T07:34:51.943Z,99000.84
2023-02-04T07:37:34.367Z,98994.06
2023-02-04T07:40:22.952Z,98987.31
2023-02-04T07:43:05.249Z,98982.94
2023-02-04T07:45:54.998Z,98980.53
2023-02-04T07:48:37.345Z,98975.69
2023-02-04T07:51:27.787Z,98971.59
2023-02-04T07:54:10.377Z,98969.72
2023-02-04T07:56:59.003Z,98961.31
2023-02-04T07:59:41.286Z,98948.06
2023-02-04T08:02:30.016Z,98952.44
2023-02-04T08:05:13.360Z,98947.88
2023-02-04T08:08:01.916Z,98938.13
2023-02-04T08:10:44.237Z,98925.97
2023-02-04T08:13:32.950Z,98925.13
2023-02-04T08:16:15.310Z,98922.34
2023-02-04T08:19:03.920Z,98911.38
2023-02-04T08:21:46.226Z,98907.63
2023-02-04T08:24:35.290Z,98895.72
2023-02-04T08:27:17.411Z,98895.63
2023-02-04T08:30:05.890Z,98892.06
2023-02-04T08:33:01.798Z,98881.34
2023-02-04T08:36:05.933Z,98885.09
2023-02-04T08:38:48.074Z,98880.31
2023-02-04T08:41:36.959Z,98877.34
2023-02-04T08:44:26.209Z,98874.66
2023-02-04T08:47:08.883Z,98862.78
2023-02-04T08:49:57.909Z,98854.97
2023-02-04T08:52:46.977Z,98852.81
2023-02-04T08:55:36.155Z,98854.19
2023-02-04T08:58:18.863Z,98853.66
2023-02-04T09:01:08.465Z,98840.91
2023-02-04T09:03:49.915Z,98847.44
2023-02-04T09:06:39.155Z,98841.50
2023-02-04T09:09:23.020Z,98836.63
2023-02-04T09:12:06.271Z,98840.41
2023-02-04T09:14:54.876Z,98832.81
2023-02-04T09:17:38.350Z,98826.81
2023-02-04T09:20:26.940Z,98831.16
2023-02-04T09:23:16.274Z,98824.44
2023-02-04T09:25:58.930Z,98831.50
2023-02-04T09:28:41.300Z,98836.91
2023-02-04T09:31:31.053Z,98829.88
2023-02-04T09:34:27.374Z,98833.94
2023-02-04T09:37:16.391Z,98829.88
2023-02-04T09:39:58.005Z,98828.50
2023-02-04T09:42:49.894Z,98830.69
2023-02-04T09:45:38.046Z,98833.13
2023-02-04T09:48:27.264Z,98830.16
2023-02-04T09:51:14.926Z,98828.00
2023-02-04T09:54:33.995Z,98823.91
2023-02-04T09:57:28.365Z,98816.09
2023-02-04T10:00:09.996Z,98819.03
2023-02-04T10:02:52.248Z,98815.53
2023-02-04T10:05:46.996Z,98812.81
2023-02-04T10:08:41.344Z,98806.88
2023-02-04T10:11:26.881Z,98809.28
2023-02-04T10:14:22.320Z,98803.63
2023-02-04T10:17:07.885Z,98801.19
2023-02-04T10:19:50.512Z,98803.38
2023-02-04T10:22:39.541Z,98805.81
2023-02-04T10:25:32.305Z,98804.19
2023-02-04T10:28:13.930Z,98798.22
2023-02-04T10:30:56.267Z,98796.88
2023-02-04T10:33:46.943Z,98792.56
2023-02-04T10:36:35.285Z,98788.75
2023-02-04T10:39:20.893Z,98789.59
2023-02-04T10:42:03.522Z,98794.47
2023-02-04T10:44:51.859Z,98788.25
2023-02-04T10:47:34.203Z,98790.13
2023-02-04T10:50:33.091Z,98788.25
2023-02-04T10:53:43.895Z,98785.03
2023-02-04T10:56:35.935Z,98791.50
2023-02-04T10:59:34.899Z,98783.66
2023-02-04T11:02:44.194Z,98781.25
2023-02-04T11:05:39.286Z,98776.13
2023-02-04T11:08:32.353Z,98783.97
2023-02-04T11:11:25.963Z,98785.03
2023-02-04T11:14:10.232Z,98784.25
2023-02-04T11:16:58.892Z,98783.94
2023-02-04T11:19:48.206Z,98785.31
2023-02-04T11:22:50.884Z,98789.06
2023-02-04T11:25:43.360Z,98778.81
2023-02-04T11:28:34.909Z,98773.38
2023-02-04T11:31:48.168Z,98784.72
2023-02-04T11:34:39.995Z,98783.88
2023-02-04T11:37:37.326Z,98786.59
2023-02-04T11:40:33.993Z,98783.31
2023-02-04T11:43:23.310Z,98781.97
2023-02-04T11:46:21.021Z,98787.88
2023-02-04T11:49:12.988Z,98786.50
2023-02-04T11:52:22.166Z,98784.88
2023-02-04T11:55:08.943Z,98790.81
2023-02-04T11:58:03.230Z,98792.63
2023-02-04T12:00:45.934Z,98787.19
2023-02-04T12:03:35.244Z,98792.31
2023-02-04T12:06:24.253Z,98787.44
2023-02-04T12:09:33.414Z,98792.03
2023-02-04T12:12:17.941Z,98783.06
2023-02-04T12:15:22.936Z,98783.53
2023-02-04T12:18:19.333Z,98783.78
2023-02-04T12:21:08.983Z,98787.72
2023-02-04T12:23:51.326Z,98778.50
2023-02-04T12:26:39.902Z,98784.66
2023-02-04T12:29:22.274Z,98783.28
2023-02-04T12:32:11.869Z,98783.97
2023-02-04T12:35:01.235Z,98793.13
2023-02-04T12:37:42.901Z,98794.69
2023-02-04T12:40:32.307Z,98789.50
2023-02-04T12:43:14.876Z,98786.78
2023-02-04T12:46:04.321Z,98792.94
2023-02-04T12:48:48.954Z,98798.78
2023-02-04T12:51:38.197Z,98795.56
2023-02-04T12:54:20.870Z,98797.44
2023-02-04T12:57:03.903Z,98798.19
2023-02-04T12:59:53.981Z,98804.81
2023-02-04T13:02:42.283Z,98805.50
2023-02-04T13:05:24.895Z,98810.88
2023-02-04T13:08:13.821Z,98811.66
2023-02-04T13:11:04.911Z,98817.22
2023-02-04T13:13:47.232Z,98813.97
2023-02-04T13:16:35.937Z,98818.69
2023-02-04T13:19:25.317Z,98812.00
2023-02-04T13:22:07.894Z,98810.63
2023-02-04T13:24:56.918Z,98812.69
2023-02-04T13:27:39.354Z,98812.47
2023-02-04T13:30:27.845Z,98812.13
2023-02-04T13:33:16.782Z,98808.06
2023-02-04T13:36:06.896Z,98810.47
2023-02-04T13:38:49.876Z,98815.84
2023-02-04T13:41:32.380Z,98820.41
2023-02-04T13:44:20.902Z,98819.81
2023-02-04T13:47:03.336Z,98816.59
2023-02-04T13:49:51.861Z,98829.34
2023-02-04T13:52:35.495Z,98829.13
2023-02-04T13:55:23.903Z,98830.03
2023-02-04T13:58:06.344Z,98835.88
2023-02-04T14:00:54.978Z,98842.44
2023-02-04T14:03:38.398Z,98844.72
2023-02-04T14:06:28.961Z,98845.47
2023-02-04T14:09:13.098Z,98842.16
2023-02-04T14:12:01.907Z,98838.06
2023-02-04T14:14:44.309Z,98841.72
2023-02-04T14:17:32.898Z,98845.38
2023-02-04T14:20:15.384Z,98840.81
2023-02-04T14:23:03.988Z,98844.00
2023-02-04T14:25:47.312Z,98844.44
2023-02-04T14:28:35.933Z,98844.56
2023-02-04T14:31:18.212Z,98839.84
2023-02-04T14:34:07.219Z,98839.53
2023-02-04T14:36:49.235Z,98843.75
2023-02-04T14:39:38.011Z,98848.53
2023-02-04T14:42:20.257Z,98840.34
2023-02-04T14:45:08.882Z,98846.75
2023-02-04T14:47:53.637Z,98847.00
2023-02-04T14:50:42.870Z,98846.22
2023-02-04T14:53:25.256Z,98844.00
2023-02-04T14:56:13.917Z,98854.31
2023-02-04T14:58:56.295Z,98856.22
2023-02-04T15:01:44.892Z,98852.44
2023-02-04T15:04:27.232Z,98848.63
2023-02-04T15:07:15.877Z,98853.59
2023-02-04T15:09:58.235Z,98862.69
2023-02-04T15:12:46.846Z,98856.59
2023-02-04T15:15:30.360Z,98853.59
2023-02-04T15:18:19.853Z,98861.13
2023-02-04T15:21:08.885Z,98853.25
2023-02-04T15:23:57.860Z,98857.47
2023-02-04T15:26:40.218Z,98855.50
2023-02-04T15:29:28.874Z,98858.44
2023-02-04T15:32:11.311Z,98852.72
2023-02-04T15:35:06.867Z,98850.53
2023-02-04T15:37:51.906Z,98859.88
2023-02-04T15:40:44.244Z,98861.97
2023-02-04T15:43:33.196Z,98861.03
2023-02-04T15:46:15.935Z,98859.88
2023-02-04T15:49:04.336Z,98857.03
2023-02-04T15:51:47.011Z,98864.72
2023-02-04T15:54:36.317Z,98865.41
2023-02-04T15:57:18.924Z,98865.34
2023-02-04T16:00:01.108Z,98864.19
2023-02-04T16:02:49.983Z,98865.56
2023-02-04T16:05:39.204Z,98868.72
2023-02-04T16:08:21.883Z,98865.59
2023-02-04T16:11:10.947Z,98865.72
2023-02-04T16:13:54.209Z,98877.34
2023-02-04T16:16:42.931Z,98874.94
2023-02-04T16:19:25.275Z,98879.09
2023-02-04T16:22:13.881Z,98881.78
2023-02-04T16:24:56.389Z,98881.56
2023-02-04T16:27:45.945Z,98888.91
2023-02-04T16:30:28.241Z,98889.72
2023-02-04T16:33:16.882Z,98896.78
2023-02-04T16:36:14.700Z,98893.41
2023-02-04T16:38:57.987Z,98901.56
2023-02-04T16:41:40.160Z,98897.25
2023-02-04T16:44:28.938Z,98897.13
2023-02-04T16:47:11.921Z,98895.81
2023-02-04T16:50:06.944Z,98888.81
2023-02-04T16:52:49.045Z,98903.06
2023-02-04T16:55:37.888Z,98912.63
2023-02-04T16:58:27.363Z,98902.25
2023-02-04T17:01:10.263Z,98901.56
2023-02-04T17:04:00.352Z,98897.94
2023-02-04T17:06:44.039Z,98897.84
2023-02-04T17:09:32.294Z,98898.66
2023-02-04T17:12:14.890Z,98890.63
2023-02-04T17:17:50.468Z,98900.41
2023-02-04T17:20:39.627Z,98896.09
2023-02-04T17:23:21.897Z,98894.72
2023-02-04T17:26:10.575Z,98908.09
2023-02-04T17:28:53.847Z,98906.13
2023-02-04T17:31:43.560Z,98909.38
2023-02-04T17:34:26.338Z,98904.97
2023-02-04T17:37:16.554Z,98909.06
2023-02-04T17:39:58.822Z,98910.09
2023-02-04T17:42:48.505Z,98916.63
2023-02-04T17:45:31.478Z,98913.00
2023-02-04T17:48:20.444Z,98926.63
2023-02-04T17:51:02.655Z,98927.16
2023-02-04T17:53:51.491Z,98918.44
2023-02-04T17:56:34.125Z,98922.50
2023-02-04T17:59:23.500Z,98929.84
2023-02-04T18:02:05.871Z,98923.88
2023-02-04T18:04:54.449Z,98922.72
2023-02-04T18:07:43.612Z,98923.75
2023-02-04T18:10:43.755Z,98916.69
2023-02-04T18:13:31.780Z,98921.09
2023-02-04T18:16:41.807Z,98916.44
2023-02-04T18:19:30.550Z,98920.78
2023-02-04T18:22:26.655Z,98912.66
2023-02-04T18:25:09.501Z,98913.03
2023-02-04T18:27:57.899Z,98918.47
2023-02-04T18:30:40.512Z,98921.00
2023-02-04T18:33:32.724Z,98925.75
2023-02-04T18:36:23.433Z,98917.81
2023-02-04T18:39:22.522Z,98922.44
2023-02-04T18:42:11.401Z,98930.66
2023-02-04T18:44:57.849Z,98918.63
2023-02-04T18:47:48.434Z,98917.66
2023-02-04T18:50:38.819Z,98914.25
2023-02-04T18:53:21.444Z,98915.06
2023-02-04T18:56:11.419Z,98910.09
2023-02-04T18:58:59.438Z,98910.31
2023-02-04T19:01:48.534Z,98897.19
2023-02-04T19:04:33.948Z,98903.25
2023-02-04T19:07:24.855Z,98906.03
2023-02-04T19:10:07.775Z,98894.16
2023-02-04T19:12:56.476Z,98902.44
2023-02-04T19:15:53.252Z,98894.53
2023-02-04T19:18:46.541Z,98880.97
2023-02-04T19:21:35.769Z,98878.81
2023-02-04T19:24:34.455Z,98881.72
2023-02-04T19:27:39.837Z,98876.50
2023-02-04T19:30:37.518Z,98875.78
2023-02-04T19:33:42.685Z,98862.31
2023-02-04T19:36:35.354Z,98869.09
2023-02-04T19:39:47.478Z,98863.16
2023-02-04T19:42:42.007Z,98861.53
2023-02-04T19:45:31.538Z,98862.81
2023-02-04T19:48:40.957Z,98863.81
2023-02-04T19:51:31.429Z,98874.16
2023-02-04T19:54:26.341Z,98864.16
2023-02-04T19:57:16.471Z,98870.09
2023-02-04T19:59:59.566Z,98864.38
2023-02-04T20:02:54.429Z,98865.63
2023-02-04T20:05:37.110Z,98860.34
2023-02-04T20:09:01.388Z,98848.31
2023-02-04T20:11:58.080Z,98854.22
2023-02-04T20:14:53.417Z,98854.59
2023-02-04T20:18:07.376Z,98850.34
2023-02-04T20:20:56.833Z,98847.84
2023-02-04T20:23:43.414Z,98841.34
2023-02-04T20:26:33.398Z,98846.28
2023-02-04T20:29:36.377Z,98849.38
2023-02-04T20:32:27.319Z,98846.13
2023-02-04T20:35:25.439Z,98839.16
2023-02-04T20:38:24.726Z,98838.72
2023-02-04T20:41:07.352Z,98832.97
2023-02-04T20:43:53.002Z,98823.53
2023-02-04T20:46:41.455Z,98828.69
2023-02-04T20:49:26.715Z,98826.44
2023-02-04T20:52:17.366Z,98828.03
2023-02-04T20:55:01.333Z,98834.81
2023-02-04T20:57:50.469Z,98829.09
2023-02-04T21:00:39.750Z,98835.91
2023-02-04T21:03:31.471Z,98826.84
2023-02-04T21:06:32.729Z,98826.44
2023-02-04T21:09:18.416Z,98821.31
2023-02-04T21:12:08.864Z,98814.72
2023-02-04T21:14:51.460Z,98803.91
2023-02-04T21:17:42.184Z,98810.63
2023-02-04T21:20:25.477Z,98804.94
2023-02-04T21:23:14.719Z,98806.41
2023-02-04T21:25:57.358Z,98803.72
2023-02-04T21:28:46.376Z,98785.72
2023-02-04T21:31:28.850Z,98792.69
2023-02-04T21:34:17.462Z,98794.38
2023-02-04T21:36:59.775Z,98793.09
2023-02-04T21:39:49.463Z,98795.19
2023-02-04T21:42:31.689Z,98790.25
2023-02-04T21:45:20.328Z,98786.94
2023-02-04T21:48:09.903Z,98783.44
2023-02-04T21:50:58.665Z,98786.25
2023-02-04T21:53:41.463Z,98783.16
2023-02-04T21:56:30.466Z,98782.88
2023-02-04T21:59:12.756Z,98780.22
2023-02-04T22:02:01.466Z,98772.00
2023-02-04T22:04:43.700Z,98765.63
2023-02-04T22:07:32.397Z,98775.19
2023-02-04T22:10:25.332Z,98771.06
2023-02-04T22:13:14.470Z,98779.03
2023-02-04T22:16:09.266Z,98768.56
2023-02-04T22:18:58.362Z,98770.03
2023-02-04T22:21:40.705Z,98765.16
2023-02-04T22:24:29.442Z,98761.25
2023-02-04T22:27:11.638Z,98754.53
2023-02-04T22:30:00.396Z,98748.22
2023-02-04T22:32:42.736Z,98750.94
2023-02-04T22:35:31.564Z,98747.13
2023-02-04T22:38:13.718Z,98732.59
2023-02-04T22:41:02.414Z,98736.13
2023-02-04T22:43:44.793Z,98731.84
2023-02-04T22:46:33.512Z,98719.75
2023-02-04T22:49:15.708Z,98717.38
2023-02-04T22:52:04.371Z,98720.97
2023-02-04T22:54:53.305Z,98724.06
2023-02-04T22:57:42.522Z,98728.78
2023-02-04T23:00:25.672Z,98738.00
2023-02-04T23:03:14.409Z,98741.69
2023-02-04T23:05:56.674Z,98738.66
2023-02-04T23:08:45.451Z,98732.97
2023-02-04T23:11:28.858Z,98737.00
2023-02-04T23:14:17.382Z,98733.72
2023-02-04T23:17:05.704Z,98727.19
2023-02-04T23:19:48.330Z,98725.16
2023-02-04T23:22:37.691Z,98723.06
2023-02-04T23:25:20.453Z,98720.41
2023-02-04T23:28:02.639Z,98721.03
2023-02-04T23:30:51.450Z,98709.38
2023-02-04T23:33:40.377Z,98705.69
2023-02-04T23:36:22.815Z,98709.00
2023-02-04T23:39:12.396Z,98707.59
2023-02-04T23:41:55.744Z,98705.41
2023-02-04T23:44:44.377Z,98705.47
2023-02-04T23:47:26.666Z,98703.00
2023-02-04T23:50:15.404Z,98706.84
2023-02-04T23:52:57.749Z,98689.25
2023-02-04T23:55:46.419Z,98699.91
2023-02-04T23:58:28.708Z,98695.22
